Time;durP1;ratioP1;P1;durP2;ratioP2;P2;SDS_P1;SDS_P2;PMS_P1;PMS_P2;Temp;Humidity;BMP_temperature;BMP_pressure;BME280_temperature;BME280_humidity;BME280_pressure;Samples;Min_cycle;Max_cycle;Signal;HPM_P1;HPM_P2
2021/03/19 00:02:17;;;;;;;8.53;7.73;;;2.30;99.90;;;;;;5053353;28;20175;-82
2021/03/19 00:04:43;;;;;;;8.70;7.93;;;2.30;99.90;;;;;;5053402;28;20184;-83
2021/03/19 00:07:08;;;;;;;10.80;9.60;;;1.80;99.90;;;;;;5071181;28;20191;-82
2021/03/19 00:09:34;;;;;;;7.97;7.27;;;2.00;99.90;;;;;;5053178;28;20175;-82
2021/03/19 00:12:00;;;;;;;9.50;8.60;;;2.40;99.90;;;;;;5053116;28;20538;-83
2021/03/19 00:14:25;;;;;;;9.60;8.70;;;2.30;99.90;;;;;;5053038;28;20176;-82
2021/03/19 00:16:51;;;;;;;10.40;9.40;;;2.20;99.90;;;;;;5053021;28;20205;-82
2021/03/19 00:19:17;;;;;;;10.43;8.60;;;1.80;99.90;;;;;;5073651;28;20194;-83
2021/03/19 00:21:43;;;;;;;11.20;10.00;;;1.80;99.90;;;;;;5074612;28;20179;-83
2021/03/19 00:24:09;;;;;;;9.07;8.27;;;2.30;99.90;;;;;;5074767;28;20808;-83
2021/03/19 00:26:34;;;;;;;10.00;9.00;;;2.20;99.90;;;;;;5074650;28;20631;-82
2021/03/19 00:29:00;;;;;;;9.60;8.57;;;2.30;99.90;;;;;;5074688;28;20174;-82
2021/03/19 00:31:25;;;;;;;10.27;9.17;;;2.10;99.90;;;;;;5074545;28;20182;-82
2021/03/19 00:33:51;;;;;;;14.43;9.90;;;2.20;99.90;;;;;;5056644;28;20171;-82
2021/03/19 00:36:16;;;;;;;8.80;8.00;;;2.10;99.90;;;;;;5056493;28;20272;-82
2021/03/19 00:38:42;;;;;;;9.13;8.20;;;1.80;99.90;;;;;;5056561;28;20176;-82
2021/03/19 00:41:08;;;;;;;9.80;8.70;;;1.90;99.90;;;;;;5056455;28;20234;-82
2021/03/19 00:43:33;;;;;;;10.50;9.40;;;2.20;99.90;;;;;;5056586;28;20179;-82
2021/03/19 00:45:59;;;;;;;10.33;8.70;;;2.00;99.90;;;;;;5056223;28;20221;-83
2021/03/19 00:48:25;;;;;;;13.00;9.10;;;1.90;99.90;;;;;;5074169;28;20630;-83
2021/03/19 00:50:52;;;;;;;10.93;9.70;;;2.00;99.90;;;;;;5074185;28;20489;-83
2021/03/19 00:53:17;;;;;;;10.00;9.00;;;1.80;99.90;;;;;;5056187;28;20274;-82
2021/03/19 00:55:43;;;;;;;17.73;10.00;;;1.70;99.90;;;;;;5056233;28;20525;-82
2021/03/19 00:58:09;;;;;;;9.93;8.67;;;1.60;99.90;;;;;;5056189;28;20275;-83
2021/03/19 01:00:36;;;;;;;10.07;9.03;;;2.00;99.90;;;;;;5055761;28;20241;-82
2021/03/19 01:03:03;;;;;;;13.70;9.67;;;2.00;99.90;;;;;;5056012;28;20185;-82
2021/03/19 01:05:40;;;;;;;9.97;8.67;;;1.90;99.90;;;;;;5073789;28;20931;-83
2021/03/19 01:08:08;;;;;;;13.82;12.27;;;2.00;99.90;;;;;;5054704;28;20414;-82
2021/03/19 01:10:38;;;;;;;12.20;10.20;;;1.80;99.90;;;;;;5055693;28;20197;-83
2021/03/19 01:13:04;;;;;;;11.60;9.80;;;2.00;99.90;;;;;;5055767;28;20418;-82
2021/03/19 01:15:31;;;;;;;13.53;11.00;;;2.00;99.90;;;;;;5055782;28;20414;-83
2021/03/19 01:17:57;;;;;;;13.73;10.03;;;1.50;99.90;;;;;;5055671;28;20433;-83
2021/03/19 01:20:26;;;;;;;11.50;10.30;;;1.80;99.90;;;;;;5073482;28;20475;-82
2021/03/19 01:22:52;;;;;;;12.03;10.27;;;1.70;99.90;;;;;;5073538;28;20193;-82
2021/03/19 01:25:19;;;;;;;12.53;10.90;;;1.90;99.90;;;;;;5055548;28;20434;-82
2021/03/19 01:27:45;;;;;;;13.07;10.67;;;1.80;99.90;;;;;;5055650;28;20422;-82
2021/03/19 01:30:15;;;;;;;11.07;9.90;;;1.90;99.90;;;;;;5054451;28;20429;-82
2021/03/19 01:32:40;;;;;;;11.83;10.57;;;1.90;99.90;;;;;;5055052;28;20414;-81
2021/03/19 01:35:07;;;;;;;12.17;10.73;;;1.50;99.90;;;;;;5055210;28;20432;-81
2021/03/19 01:37:32;;;;;;;14.13;11.33;;;1.90;99.90;;;;;;5055063;28;20179;-81
2021/03/19 01:39:58;;;;;;;16.63;11.50;;;1.80;99.90;;;;;;5055272;28;20502;-81
2021/03/19 01:42:24;;;;;;;13.10;10.70;;;1.90;99.90;;;;;;5055499;28;20182;-81
2021/03/19 01:45:08;;;;;;;13.17;11.77;;;1.90;99.90;;;;;;5055264;28;20178;-81
2021/03/19 01:48:11;;;;;;;11.93;10.73;;;2.00;99.90;;;;;;5055353;28;20590;-82
2021/03/19 01:51:15;;;;;;;14.87;11.03;;;1.80;99.90;;;;;;5055078;28;20479;-81
2021/03/19 01:54:18;;;;;;;12.60;11.40;;;1.70;99.90;;;;;;5072949;28;20806;-81
2021/03/19 01:57:21;;;;;;;12.83;11.47;;;1.70;99.90;;;;;;5054988;28;20449;-82
2021/03/19 02:00:24;;;;;;;10.93;9.60;;;1.70;99.90;;;;;;5053964;28;20477;-82
2021/03/19 02:03:27;;;;;;;12.87;11.50;;;1.80;99.90;;;;;;5072745;28;20773;-82
2021/03/19 02:06:30;;;;;;;13.87;11.80;;;1.70;99.90;;;;;;5054597;28;20421;-82
2021/03/19 02:09:34;;;;;;;14.50;12.90;;;1.70;99.90;;;;;;5054582;28;20425;-82
2021/03/19 02:12:37;;;;;;;13.87;11.87;;;1.80;99.90;;;;;;5072550;28;20500;-82
2021/03/19 02:15:40;;;;;;;13.50;12.10;;;1.70;99.90;;;;;;5072429;28;20420;-82
2021/03/19 02:18:43;;;;;;;14.10;11.67;;;1.70;99.90;;;;;;5072397;28;20421;-82
2021/03/19 02:21:46;;;;;;;12.87;11.50;;;1.80;99.90;;;;;;5054350;28;20563;-82
2021/03/19 02:24:49;;;;;;;17.73;13.63;;;1.70;99.90;;;;;;5054318;28;20475;-82
2021/03/19 02:27:52;;;;;;;12.97;11.63;;;1.50;99.90;;;;;;5072651;28;20417;-82
2021/03/19 02:30:55;;;;;;;13.30;12.00;;;1.80;99.90;;;;;;5054324;28;20431;-82
2021/03/19 02:33:21;;;;;;;14.13;12.73;;;1.60;99.90;;;;;;5054167;28;20433;-82
2021/03/19 02:35:58;;;;;;;14.07;12.07;;;1.70;99.90;;;;;;5054106;28;20471;-82
2021/03/19 02:38:25;;;;;;;18.67;11.93;;;1.80;99.90;;;;;;5054031;28;20228;-81
2021/03/19 02:40:51;;;;;;;14.47;11.97;;;1.60;99.90;;;;;;5053828;28;20481;-82
2021/03/19 02:43:19;;;;;;;13.30;12.00;;;1.80;99.90;;;;;;5071225;28;20848;-81
2021/03/19 02:45:45;;;;;;;16.37;13.10;;;1.60;99.90;;;;;;5053963;28;20478;-81
2021/03/19 02:48:11;;;;;;;20.23;14.20;;;1.70;99.90;;;;;;5071993;28;20413;-81
2021/03/19 02:50:38;;;;;;;25.20;17.80;;;1.40;99.90;;;;;;5054383;28;20414;-82
2021/03/19 02:53:04;;;;;;;16.63;13.17;;;1.80;99.90;;;;;;5072105;28;20414;-82
2021/03/19 02:55:30;;;;;;;18.90;12.50;;;1.50;99.90;;;;;;5054093;28;20453;-81
2021/03/19 02:57:56;;;;;;;15.13;12.27;;;1.30;99.90;;;;;;5053779;28;20192;-81
2021/03/19 03:00:24;;;;;;;14.13;12.17;;;1.40;99.90;;;;;;5050063;28;20234;-81
2021/03/19 03:02:50;;;;;;;17.43;13.57;;;1.90;99.90;;;;;;5051695;28;20280;-81
2021/03/19 03:05:17;;;;;;;15.00;12.90;;;1.70;99.90;;;;;;5050601;28;20876;-81
2021/03/19 03:07:44;;;;;;;14.90;12.27;;;2.00;99.90;;;;;;5050303;28;20549;-80
2021/03/19 03:10:12;;;;;;;14.53;13.03;;;2.00;99.90;;;;;;5050432;28;20426;-81
2021/03/19 03:12:38;;;;;;;18.23;13.23;;;1.90;99.90;;;;;;5051656;28;20902;-81
2021/03/19 03:15:13;;;;;;;15.53;13.53;;;1.80;99.90;;;;;;5050176;28;20480;-81
2021/03/19 03:17:39;;;;;;;16.13;13.70;;;1.70;99.90;;;;;;5050029;28;20635;-81
2021/03/19 03:20:07;;;;;;;14.13;12.80;;;2.00;99.90;;;;;;5050438;28;20462;-81
2021/03/19 03:22:33;;;;;;;14.77;12.30;;;1.80;99.90;;;;;;5051420;28;20415;-82
2021/03/19 03:24:59;;;;;;;16.77;14.67;;;1.50;99.90;;;;;;5050069;28;20433;-81
2021/03/19 03:27:25;;;;;;;17.87;16.00;;;1.70;99.90;;;;;;5051584;28;20254;-81
2021/03/19 03:29:51;;;;;;;16.40;14.20;;;1.90;99.90;;;;;;5050331;28;20439;-81
2021/03/19 03:32:16;;;;;;;16.07;13.00;;;1.50;99.90;;;;;;5051512;28;20425;-81
2021/03/19 03:34:42;;;;;;;16.47;14.77;;;2.10;99.90;;;;;;5050166;28;20187;-81
2021/03/19 03:37:08;;;;;;;15.63;13.57;;;2.00;99.90;;;;;;5051688;28;20214;-81
2021/03/19 03:39:33;;;;;;;16.87;14.50;;;1.60;99.90;;;;;;5050049;28;20261;-81
2021/03/19 03:42:03;;;;;;;15.30;13.63;;;1.90;99.90;;;;;;5049971;28;20188;-81
2021/03/19 03:44:30;;;;;;;15.57;13.07;;;2.00;99.90;;;;;;5051632;28;20171;-81
2021/03/19 03:46:56;;;;;;;14.90;12.87;;;1.60;99.90;;;;;;5049947;28;20504;-81
2021/03/19 03:49:23;;;;;;;20.30;15.60;;;2.10;99.90;;;;;;5049959;28;20414;-81
2021/03/19 03:51:50;;;;;;;20.97;16.80;;;1.50;99.90;;;;;;5049875;28;20434;-81
2021/03/19 03:54:16;;;;;;;18.17;15.30;;;1.90;99.90;;;;;;5052354;28;20464;-81
2021/03/19 03:56:42;;;;;;;17.67;14.57;;;2.00;99.90;;;;;;5053878;28;20485;-81
2021/03/19 03:59:08;;;;;;;17.13;14.83;;;1.70;99.90;;;;;;5053632;28;20541;-81
2021/03/19 04:01:37;;;;;;;16.50;14.77;;;2.00;99.90;;;;;;5055339;28;20900;-81
2021/03/19 04:04:03;;;;;;;16.83;14.00;;;2.00;99.90;;;;;;5053882;28;20287;-81
2021/03/19 04:06:29;;;;;;;17.73;15.03;;;1.90;99.90;;;;;;5053910;28;20524;-81
2021/03/19 04:08:54;;;;;;;17.40;14.50;;;1.80;99.90;;;;;;5053642;28;20894;-81
2021/03/19 04:11:21;;;;;;;17.50;15.13;;;1.90;99.90;;;;;;5053928;28;20180;-81
2021/03/19 04:13:48;;;;;;;15.27;13.67;;;1.70;99.90;;;;;;5055162;28;20180;-82
2021/03/19 04:16:15;;;;;;;17.50;14.83;;;1.90;99.90;;;;;;5053619;28;20782;-82
2021/03/19 04:18:41;;;;;;;17.27;15.47;;;2.10;99.90;;;;;;5054905;28;20433;-82
2021/03/19 04:21:09;;;;;;;18.30;16.40;;;2.10;99.90;;;;;;5053311;28;21001;-82
2021/03/19 04:23:38;;;;;;;16.70;14.60;;;1.80;99.90;;;;;;5054004;28;20429;-82
2021/03/19 04:26:04;;;;;;;18.43;15.13;;;2.00;99.90;;;;;;5055086;28;20501;-80
2021/03/19 04:28:39;;;;;;;18.67;16.70;;;2.20;99.90;;;;;;5053759;28;20794;-82
2021/03/19 04:31:05;;;;;;;18.17;16.37;;;1.70;99.90;;;;;;5054800;28;20508;-82
2021/03/19 04:33:31;;;;;;;22.73;16.50;;;2.00;99.90;;;;;;5053500;28;20507;-82
2021/03/19 04:36:12;;;;;;;20.70;15.97;;;1.60;99.90;;;;;;5054605;28;20419;-84
2021/03/19 04:38:38;;;;;;;15.83;14.10;;;2.00;99.90;;;;;;5053860;28;20910;-83
2021/03/19 04:41:05;;;;;;;19.30;14.77;;;2.00;99.90;;;;;;5053083;28;20474;-82
2021/03/19 04:43:32;;;;;;;21.13;15.80;;;2.00;99.90;;;;;;5053311;28;20185;-83
2021/03/19 04:45:58;;;;;;;19.10;16.97;;;2.00;99.90;;;;;;5054394;28;20766;-82
2021/03/19 04:48:23;;;;;;;23.77;16.60;;;2.10;99.90;;;;;;5054566;28;20410;-83
2021/03/19 04:50:49;;;;;;;22.73;15.70;;;2.10;99.90;;;;;;5054529;28;20695;-82
2021/03/19 04:53:14;;;;;;;17.90;14.97;;;1.60;99.90;;;;;;5054267;28;20693;-82
2021/03/19 04:55:40;;;;;;;17.23;14.53;;;2.10;99.90;;;;;;5053163;28;20188;-82
2021/03/19 04:58:06;;;;;;;18.10;16.20;;;2.10;99.90;;;;;;5054064;28;20210;-83
2021/03/19 05:00:31;;;;;;;19.20;16.73;;;1.60;99.90;;;;;;5068972;28;20238;-81
2021/03/19 05:02:57;;;;;;;20.13;16.70;;;1.60;99.90;;;;;;5056255;28;20175;-83
2021/03/19 05:05:27;;;;;;;25.00;18.43;;;2.00;99.90;;;;;;5073414;28;20186;-82
2021/03/19 05:07:54;;;;;;;18.57;16.10;;;2.20;99.90;;;;;;5056091;28;20369;-82
2021/03/19 05:10:22;;;;;;;22.80;18.40;;;2.10;99.90;;;;;;5056263;28;20780;-82
2021/03/19 05:12:48;;;;;;;27.27;18.83;;;2.00;99.90;;;;;;5055976;28;20413;-81
2021/03/19 05:15:14;;;;;;;24.90;19.63;;;2.20;99.90;;;;;;5055679;28;20953;-82
2021/03/19 05:17:40;;;;;;;23.30;19.60;;;2.20;99.90;;;;;;5055814;28;20175;-81
2021/03/19 05:20:09;;;;;;;19.63;16.93;;;2.00;99.90;;;;;;5056414;28;20579;-83
2021/03/19 05:22:34;;;;;;;24.27;17.27;;;2.10;99.90;;;;;;5055889;28;20925;-82
2021/03/19 05:25:00;;;;;;;18.37;14.80;;;1.60;99.90;;;;;;5073848;28;20467;-83
2021/03/19 05:27:26;;;;;;;24.37;19.30;;;2.10;99.90;;;;;;5055789;28;20182;-83
2021/03/19 05:29:57;;;;;;;23.37;18.67;;;1.60;99.90;;;;;;5073749;28;20171;-82
2021/03/19 05:32:24;;;;;;;21.13;16.97;;;1.90;99.90;;;;;;5055879;28;20179;-82
2021/03/19 05:34:50;;;;;;;23.03;18.03;;;2.10;99.90;;;;;;5055767;28;20805;-82
2021/03/19 05:37:16;;;;;;;22.10;17.40;;;1.60;99.90;;;;;;5057208;28;20479;-81
2021/03/19 05:39:42;;;;;;;24.70;19.40;;;2.20;99.90;;;;;;5055959;28;20453;-82
2021/03/19 05:42:28;;;;;;;20.60;17.77;;;2.10;99.90;;;;;;5074076;28;20471;-83
2021/03/19 05:45:29;;;;;;;27.93;18.03;;;2.10;99.90;;;;;;5055465;28;20229;-81
2021/03/19 05:47:57;;;;;;;20.33;17.10;;;2.20;99.90;;;;;;5073856;28;20480;-81
2021/03/19 05:50:29;;;;;;;19.57;16.37;;;1.70;99.90;;;;;;5074168;28;20414;-83
2021/03/19 05:52:55;;;;;;;25.67;19.93;;;2.10;99.90;;;;;;5055620;28;20943;-82
2021/03/19 05:55:25;;;;;;;22.40;17.50;;;1.80;99.90;;;;;;5055506;28;20512;-82
2021/03/19 05:57:57;;;;;;;24.87;19.83;;;1.90;99.90;;;;;;5056076;28;20183;-82
2021/03/19 06:00:25;;;;;;;29.33;18.37;;;2.00;99.90;;;;;;5055277;28;20837;-82
2021/03/19 06:02:50;;;;;;;25.10;18.17;;;2.00;99.90;;;;;;5055295;28;20425;-83
2021/03/19 06:05:18;;;;;;;25.60;19.00;;;2.00;99.90;;;;;;5055998;28;20441;-82
2021/03/19 06:08:02;;;;;;;21.97;18.50;;;1.80;99.90;;;;;;5055448;28;20717;-82
2021/03/19 06:10:37;;;;;;;25.60;19.97;;;2.20;99.90;;;;;;5055324;28;20797;-81
2021/03/19 06:13:23;;;;;;;27.93;20.90;;;2.10;99.90;;;;;;5056342;28;20413;-82
2021/03/19 06:15:51;;;;;;;23.20;18.20;;;2.20;99.90;;;;;;5072388;28;20417;-80
2021/03/19 06:18:55;;;;;;;28.17;22.07;;;2.10;99.90;;;;;;5071796;28;20801;-83
2021/03/19 06:21:32;;;;;;;31.03;20.17;;;2.20;99.90;;;;;;5048623;28;20469;-82
2021/03/19 06:24:24;;;;;;;24.60;18.40;;;2.10;99.90;;;;;;5054085;28;20772;-82
2021/03/19 06:26:52;;;;;;;26.33;20.20;;;2.10;99.90;;;;;;5054313;28;20426;-82
2021/03/19 06:29:21;;;;;;;30.70;21.70;;;1.80;99.90;;;;;;5057154;28;20428;-81
2021/03/19 06:32:10;;;;;;;30.87;22.37;;;2.20;99.90;;;;;;5053209;28;20933;-83
2021/03/19 06:34:49;;;;;;;23.70;17.93;;;2.00;99.90;;;;;;5059557;28;20434;-83
2021/03/19 06:37:26;;;;;;;27.33;20.60;;;1.80;99.90;;;;;;5056650;28;20821;-82
2021/03/19 06:39:54;;;;;;;27.30;18.90;;;1.70;99.90;;;;;;5071217;28;20452;-83
2021/03/19 06:42:20;;;;;;;20.17;16.70;;;1.70;99.90;;;;;;5055109;28;20441;-81
2021/03/19 06:45:12;;;;;;;30.10;20.97;;;1.90;99.90;;;;;;5070414;28;20410;-82
2021/03/19 06:47:40;;;;;;;27.10;18.80;;;2.20;99.90;;;;;;5048969;28;20182;-81
2021/03/19 06:50:11;;;;;;;29.97;21.67;;;2.40;99.90;;;;;;5069996;28;21063;-81
2021/03/19 06:52:36;;;;;;;22.87;17.63;;;2.40;99.90;;;;;;5069656;28;20774;-82
2021/03/19 06:55:04;;;;;;;27.63;20.37;;;2.30;99.90;;;;;;5071279;28;20405;-80
2021/03/19 06:57:49;;;;;;;27.10;20.00;;;2.30;99.90;;;;;;5069880;28;20286;-82
2021/03/19 07:00:41;;;;;;;26.43;19.57;;;2.20;99.90;;;;;;5069765;28;20488;-84
2021/03/19 07:03:28;;;;;;;31.87;22.23;;;2.40;99.90;;;;;;5069459;28;20929;-82
2021/03/19 07:06:28;;;;;;;81.03;46.67;;;2.60;99.90;;;;;;5071387;28;20424;-82
2021/03/19 07:09:13;;;;;;;31.53;21.93;;;2.50;99.90;;;;;;5070449;28;20429;-83
2021/03/19 07:11:41;;;;;;;32.07;22.83;;;2.60;99.90;;;;;;5070462;28;20736;-83
2021/03/19 07:14:24;;;;;;;26.03;19.07;;;2.50;99.90;;;;;;5053980;28;20425;-82
2021/03/19 07:17:17;;;;;;;27.60;19.50;;;2.50;99.90;;;;;;5071088;28;21042;-85
2021/03/19 07:19:48;;;;;;;31.80;20.80;;;2.40;99.90;;;;;;5054326;28;20887;-83
2021/03/19 07:22:25;;;;;;;28.77;21.20;;;2.70;99.90;;;;;;5071448;28;20414;-79
2021/03/19 07:25:23;;;;;;;25.93;18.43;;;2.50;99.90;;;;;;5070685;28;20413;-80
2021/03/19 07:27:57;;;;;;;36.83;20.63;;;2.60;99.90;;;;;;4983247;28;20430;-81
2021/03/19 07:30:40;;;;;;;30.23;20.90;;;2.70;99.90;;;;;;5059816;28;20500;-82
2021/03/19 07:33:37;;;;;;;35.50;22.13;;;2.60;99.90;;;;;;5059884;28;20417;-82
2021/03/19 07:36:09;;;;;;;34.40;23.97;;;2.60;99.90;;;;;;5060539;28;20417;-81
2021/03/19 07:39:16;;;;;;;31.10;20.90;;;2.70;99.90;;;;;;5059432;28;20421;-83
2021/03/19 07:41:59;;;;;;;27.93;19.83;;;2.60;99.90;;;;;;4976244;28;20445;-84
2021/03/19 07:44:37;;;;;;;36.43;23.87;;;2.50;99.90;;;;;;5068175;28;20433;-76
2021/03/19 07:47:40;;;;;;;30.10;21.40;;;2.80;99.90;;;;;;5070260;28;20860;-82
2021/03/19 07:50:18;;;;;;;27.93;18.63;;;2.70;99.90;;;;;;5077026;28;20432;-83
2021/03/19 07:53:17;;;;;;;26.77;19.00;;;2.80;99.90;;;;;;5077203;28;20417;-82
2021/03/19 07:56:04;;;;;;;26.57;18.43;;;2.70;99.90;;;;;;5076004;28;20421;-81
2021/03/19 07:59:00;;;;;;;27.13;18.60;;;2.40;99.90;;;;;;5078978;28;20936;-82
2021/03/19 08:01:31;;;;;;;27.77;18.50;;;2.60;99.90;;;;;;5068425;28;20937;-83
2021/03/19 08:04:25;;;;;;;29.30;19.97;;;2.40;99.90;;;;;;5059012;28;20421;-82
2021/03/19 08:06:54;;;;;;;23.53;16.33;;;2.70;99.90;;;;;;5032978;28;20424;-82
2021/03/19 08:10:00;;;;;;;29.60;19.90;;;2.60;99.90;;;;;;5059053;28;20425;-82
2021/03/19 08:12:34;;;;;;;24.23;17.03;;;2.40;99.90;;;;;;5057884;28;20429;-82
2021/03/19 08:15:14;;;;;;;26.77;17.93;;;2.70;99.90;;;;;;5059007;28;20525;-82
2021/03/19 08:18:03;;;;;;;25.23;17.37;;;2.80;99.90;;;;;;5059149;28;20421;-81
2021/03/19 08:20:40;;;;;;;22.30;14.07;;;2.40;99.90;;;;;;5077385;28;20892;-83
2021/03/19 08:23:40;;;;;;;21.53;14.10;;;2.50;99.90;;;;;;5059563;28;20753;-82
2021/03/19 08:26:22;;;;;;;20.60;14.07;;;2.70;99.90;;;;;;5076866;28;20507;-82
2021/03/19 08:29:01;;;;;;;25.13;15.97;;;2.30;99.90;;;;;;5059176;28;20436;-82
2021/03/19 08:31:42;;;;;;;22.60;16.23;;;2.70;99.90;;;;;;5058925;28;20425;-83
2021/03/19 08:34:13;;;;;;;24.93;16.60;;;2.50;99.90;;;;;;5058547;28;20997;-82
2021/03/19 08:36:43;;;;;;;25.23;17.87;;;2.60;99.90;;;;;;5077028;28;20409;-83
2021/03/19 08:39:23;;;;;;;22.20;15.30;;;2.70;99.90;;;;;;5057857;28;20417;-82
2021/03/19 08:42:10;;;;;;;19.77;15.67;;;2.70;99.90;;;;;;5055852;28;20516;-79
2021/03/19 08:44:37;;;;;;;24.50;17.67;;;2.70;99.90;;;;;;5073782;28;20462;-82
2021/03/19 08:47:13;;;;;;;24.03;18.03;;;2.90;99.90;;;;;;5055390;28;20429;-82
2021/03/19 08:49:45;;;;;;;25.17;18.77;;;2.80;99.90;;;;;;5073467;28;20496;-82
2021/03/19 08:52:31;;;;;;;23.57;17.97;;;2.90;99.90;;;;;;5073763;28;20436;-82
2021/03/19 08:55:12;;;;;;;22.67;17.23;;;3.00;99.90;;;;;;5054450;28;20955;-82
2021/03/19 08:57:58;;;;;;;24.30;17.40;;;3.00;99.90;;;;;;5054831;28;20421;-84
2021/03/19 09:00:26;;;;;;;22.77;15.93;;;3.00;99.90;;;;;;5054543;28;20484;-82
2021/03/19 09:02:54;;;;;;;20.77;15.57;;;3.00;99.90;;;;;;5073786;28;20417;-82
2021/03/19 09:05:32;;;;;;;22.57;16.20;;;3.30;99.90;;;;;;5054946;28;20474;-82
2021/03/19 09:08:49;;;;;;;19.13;15.23;;;3.10;99.90;;;;;;5071683;28;20441;-80
2021/03/19 09:11:22;;;;;;;20.63;16.60;;;3.50;99.90;;;;;;5046588;28;20421;-82
2021/03/19 09:14:01;;;;;;;17.87;15.30;;;3.30;99.90;;;;;;5055062;28;20536;-83
2021/03/19 09:16:48;;;;;;;19.87;16.13;;;3.40;99.90;;;;;;5054752;28;21012;-82
2021/03/19 09:19:32;;;;;;;17.70;13.87;;;3.20;99.90;;;;;;5054764;28;20420;-83
2021/03/19 09:22:19;;;;;;;20.43;15.27;;;3.20;99.90;;;;;;5072875;28;20421;-82
2021/03/19 09:25:11;;;;;;;19.27;14.70;;;3.30;99.90;;;;;;5074328;28;20405;-82
2021/03/19 09:28:03;;;;;;;16.20;13.20;;;3.40;99.90;;;;;;5072513;28;20425;-82
2021/03/19 09:30:49;;;;;;;15.87;13.13;;;3.60;99.90;;;;;;5072812;28;20421;-82
2021/03/19 09:33:42;;;;;;;17.43;14.13;;;3.50;99.90;;;;;;5056322;28;20881;-82
2021/03/19 09:36:49;;;;;;;14.93;12.97;;;3.70;99.90;;;;;;5056361;28;20421;-79
2021/03/19 09:39:49;;;;;;;16.13;12.83;;;4.30;99.90;;;;;;5054755;28;20490;-83
2021/03/19 09:42:18;;;;;;;16.83;12.93;;;4.20;99.90;;;;;;5054533;28;20840;-83
2021/03/19 09:44:50;;;;;;;14.43;12.93;;;4.10;99.90;;;;;;5054119;28;20486;-82
2021/03/19 09:47:18;;;;;;;15.33;12.63;;;4.00;99.90;;;;;;5054325;28;20940;-82
2021/03/19 09:49:43;;;;;;;14.70;12.03;;;3.70;99.90;;;;;;5054483;28;20421;-82
2021/03/19 09:52:36;;;;;;;13.60;11.00;;;4.40;99.90;;;;;;5053667;28;20994;-83
2021/03/19 09:55:19;;;;;;;12.20;10.77;;;4.20;99.90;;;;;;5067552;28;20187;-82
2021/03/19 09:57:44;;;;;;;10.97;9.87;;;4.20;99.90;;;;;;5073802;28;20504;-82
2021/03/19 10:00:16;;;;;;;12.40;11.10;;;4.20;99.90;;;;;;5073241;28;20604;-83
2021/03/19 10:02:42;;;;;;;14.93;10.23;;;4.00;99.90;;;;;;5053986;28;20190;-81
2021/03/19 10:05:17;;;;;;;11.57;9.83;;;4.00;99.90;;;;;;5055205;28;20412;-82
2021/03/19 10:07:58;;;;;;;13.80;11.07;;;3.70;99.90;;;;;;5053669;28;20457;-82
2021/03/19 10:10:35;;;;;;;14.70;10.37;;;3.50;99.90;;;;;;5071921;28;20893;-83
2021/03/19 10:13:07;;;;;;;13.30;11.90;;;3.40;99.90;;;;;;5053802;28;20428;-83
2021/03/19 10:15:34;;;;;;;12.27;10.57;;;3.60;99.90;;;;;;5072562;28;20912;-82
2021/03/19 10:18:03;;;;;;;10.90;9.20;;;3.40;99.90;;;;;;5052258;28;20561;-80
2021/03/19 10:20:36;;;;;;;10.63;8.50;;;3.30;99.90;;;;;;5072316;28;20473;-81
2021/03/19 10:23:08;;;;;;;7.30;6.60;;;2.80;99.90;;;;;;5070264;28;20468;-83
2021/03/19 10:25:45;;;;;;;6.80;5.83;;;2.70;99.90;;;;;;5070513;28;20480;-81
2021/03/19 10:28:16;;;;;;;6.23;5.60;;;2.50;99.90;;;;;;5054669;28;20441;-82
2021/03/19 10:30:51;;;;;;;6.40;5.70;;;2.40;99.90;;;;;;5070538;28;20413;-82
2021/03/19 10:33:30;;;;;;;27.07;20.03;;;2.40;99.90;;;;;;5071148;28;20512;-82
2021/03/19 10:36:01;;;;;;;8.90;6.93;;;2.40;99.90;;;;;;5053336;28;20436;-82
2021/03/19 10:38:38;;;;;;;9.63;8.10;;;2.50;99.90;;;;;;5053212;28;20444;-82
2021/03/19 10:41:15;;;;;;;10.70;8.63;;;2.50;99.90;;;;;;5053886;28;20571;-83
2021/03/19 10:43:54;;;;;;;12.30;9.50;;;2.70;99.90;;;;;;5071290;28;20436;-82
2021/03/19 10:46:29;;;;;;;11.97;9.60;;;2.60;99.90;;;;;;5071860;28;20401;-83
2021/03/19 10:49:01;;;;;;;9.53;8.53;;;2.60;99.90;;;;;;5053065;28;20536;-83
2021/03/19 10:51:51;;;;;;;11.87;10.33;;;2.50;99.90;;;;;;5071622;28;20417;-83
2021/03/19 10:54:25;;;;;;;12.90;8.90;;;2.50;99.90;;;;;;5053109;28;20471;-82
2021/03/19 10:56:57;;;;;;;10.37;9.10;;;3.00;99.90;;;;;;5053840;28;20421;-83
2021/03/19 10:59:29;;;;;;;12.43;9.60;;;2.80;99.90;;;;;;5053151;28;20464;-82
2021/03/19 11:02:06;;;;;;;13.20;10.70;;;3.20;99.90;;;;;;5070774;28;20429;-83
2021/03/19 11:04:38;;;;;;;12.00;10.50;;;3.10;99.90;;;;;;5070877;28;20405;-83
2021/03/19 11:07:29;;;;;;;9.57;8.53;;;3.90;99.90;;;;;;5071138;28;20426;-84
2021/03/19 11:10:19;;;;;;;8.37;7.23;;;4.80;99.90;;;;;;5053080;28;20979;-83
2021/03/19 11:12:56;;;;;;;8.37;7.50;;;5.40;99.90;;;;;;5071005;28;20432;-81
2021/03/19 11:15:37;;;;;;;7.03;6.53;;;6.00;99.90;;;;;;5052968;28;20432;-83
2021/03/19 11:18:20;;;;;;;5.93;5.43;;;5.70;99.90;;;;;;5070835;28;20754;-82
2021/03/19 11:20:53;;;;;;;7.30;6.60;;;5.50;99.90;;;;;;5052930;28;20473;-82
2021/03/19 11:23:45;;;;;;;8.20;7.47;;;5.20;99.90;;;;;;5071620;28;20410;-84
2021/03/19 11:26:30;;;;;;;7.43;6.77;;;6.00;99.90;;;;;;5053123;28;20793;-83
2021/03/19 11:29:17;;;;;;;7.47;6.87;;;7.10;99.90;;;;;;5053169;28;20996;-83
2021/03/19 11:32:03;;;;;;;6.10;5.60;;;6.10;99.90;;;;;;5052722;28;20417;-83
2021/03/19 11:34:49;;;;;;;6.70;6.10;;;5.80;99.90;;;;;;5063614;28;20983;-82
2021/03/19 11:37:34;;;;;;;6.90;6.30;;;5.40;99.90;;;;;;5068684;28;20425;-84
2021/03/19 11:40:14;;;;;;;7.57;6.63;;;5.10;99.90;;;;;;5069149;28;20477;-83
2021/03/19 11:42:51;;;;;;;9.17;8.30;;;5.00;99.90;;;;;;5069820;28;20426;-83
2021/03/19 11:45:24;;;;;;;8.27;6.47;;;5.00;99.90;;;;;;5070254;28;20412;-82
2021/03/19 11:47:59;;;;;;;10.40;8.57;;;4.90;99.90;;;;;;5069263;28;20413;-81
2021/03/19 11:50:30;;;;;;;11.33;9.00;;;5.10;99.90;;;;;;5072317;28;20467;-81
2021/03/19 11:53:00;;;;;;;10.23;9.10;;;5.20;99.90;;;;;;5072745;28;20492;-83
2021/03/19 11:55:29;;;;;;;9.57;8.63;;;5.50;99.90;;;;;;5070068;28;20429;-82
2021/03/19 11:57:54;;;;;;;12.87;9.37;;;5.10;99.90;;;;;;5071135;28;20406;-82
2021/03/19 12:00:26;;;;;;;11.83;9.50;;;4.70;99.90;;;;;;5072126;28;20487;-82
2021/03/19 12:02:56;;;;;;;11.23;9.33;;;4.40;99.90;;;;;;5070098;28;20557;-80
2021/03/19 12:05:23;;;;;;;11.60;9.67;;;4.20;99.90;;;;;;5071304;28;20429;-82
2021/03/19 12:07:49;;;;;;;12.87;10.60;;;3.90;99.90;;;;;;5071143;28;20436;-80
2021/03/19 12:10:18;;;;;;;11.53;9.40;;;4.20;99.90;;;;;;5070511;28;20425;-83
2021/03/19 12:12:44;;;;;;;11.87;9.70;;;4.20;99.90;;;;;;5071651;28;20476;-82
2021/03/19 12:15:15;;;;;;;11.80;10.47;;;4.10;99.90;;;;;;5074943;28;20417;-82
2021/03/19 12:17:41;;;;;;;10.90;9.67;;;4.20;99.90;;;;;;5073144;28;20236;-82
2021/03/19 12:20:07;;;;;;;11.10;9.90;;;4.50;99.90;;;;;;5074886;28;20563;-82
2021/03/19 12:22:33;;;;;;;10.30;8.77;;;4.30;99.90;;;;;;5073147;28;20227;-83
2021/03/19 12:24:59;;;;;;;11.20;9.70;;;3.90;99.90;;;;;;5075166;28;20486;-82
2021/03/19 12:27:25;;;;;;;10.50;8.70;;;3.80;99.90;;;;;;5074638;28;20861;-74
2021/03/19 12:29:51;;;;;;;11.87;9.83;;;4.00;99.90;;;;;;5074659;28;20266;-82
2021/03/19 12:32:18;;;;;;;13.87;10.77;;;4.10;99.90;;;;;;5074637;28;20508;-82
2021/03/19 12:34:45;;;;;;;12.03;9.23;;;4.10;99.90;;;;;;5074495;28;20221;-83
2021/03/19 12:37:11;;;;;;;11.50;9.30;;;4.40;99.90;;;;;;5074635;28;20500;-82
2021/03/19 12:39:36;;;;;;;10.63;9.53;;;4.50;99.90;;;;;;5074167;28;20611;-82
2021/03/19 12:42:02;;;;;;;9.30;8.30;;;4.40;99.90;;;;;;5077040;28;20172;-81
2021/03/19 12:44:28;;;;;;;11.80;10.03;;;4.40;99.90;;;;;;5072852;28;20171;-80
2021/03/19 12:46:55;;;;;;;11.70;9.93;;;4.10;99.90;;;;;;5078189;28;20437;-81
2021/03/19 12:49:21;;;;;;;14.00;11.27;;;4.20;99.90;;;;;;5061457;28;20266;-81
2021/03/19 12:51:46;;;;;;;13.17;9.53;;;4.00;99.90;;;;;;5073457;28;20496;-81
2021/03/19 12:54:12;;;;;;;12.73;8.90;;;4.20;99.90;;;;;;5054849;28;20810;-82
2021/03/19 12:56:37;;;;;;;11.90;9.37;;;3.80;99.90;;;;;;5055497;28;20237;-82
2021/03/19 12:59:03;;;;;;;13.30;11.10;;;4.00;99.90;;;;;;5055489;28;20650;-82
2021/03/19 13:01:29;;;;;;;12.67;10.47;;;4.10;99.90;;;;;;5073669;28;20214;-82
2021/03/19 13:03:54;;;;;;;12.27;10.13;;;4.20;99.90;;;;;;5071381;28;20266;-82
2021/03/19 13:06:22;;;;;;;15.43;11.33;;;4.30;99.90;;;;;;5064826;28;20171;-82
2021/03/19 13:08:49;;;;;;;12.83;9.80;;;3.80;99.90;;;;;;5072602;28;20257;-82
2021/03/19 13:11:15;;;;;;;12.00;9.80;;;4.20;99.90;;;;;;5073886;28;20971;-82
2021/03/19 13:13:42;;;;;;;11.53;10.13;;;4.30;99.90;;;;;;5055036;28;20500;-80
2021/03/19 13:16:08;;;;;;;15.27;11.80;;;4.50;99.90;;;;;;5072872;28;20422;-81
2021/03/19 13:18:34;;;;;;;13.13;9.80;;;4.40;99.90;;;;;;5073008;28;20765;-81